createdAt,value
2023-05-19T00:00:49.002Z,17.52
2023-05-19T00:03:40.840Z,17.54
2023-05-19T00:06:32.827Z,17.51
2023-05-19T00:09:22.845Z,17.49
2023-05-19T00:12:15.880Z,17.51
2023-05-19T00:15:05.936Z,17.52
2023-05-19T00:17:55.877Z,17.54
2023-05-19T00:20:45.909Z,17.51
2023-05-19T00:23:35.179Z,17.51
2023-05-19T00:26:24.719Z,17.46
2023-05-19T00:29:22.777Z,17.47
2023-05-19T00:32:12.129Z,17.46
2023-05-19T00:35:01.615Z,17.53
2023-05-19T00:37:50.992Z,17.49
2023-05-19T00:40:40.421Z,17.47
2023-05-19T00:43:30.362Z,17.40
2023-05-19T00:46:21.525Z,17.33
2023-05-19T00:49:11.044Z,17.33
2023-05-19T00:52:02.583Z,17.25
2023-05-19T00:54:52.760Z,17.22
2023-05-19T00:57:42.710Z,17.24
2023-05-19T01:00:33.198Z,17.18
2023-05-19T01:03:25.713Z,17.12
2023-05-19T01:06:15.308Z,17.03
2023-05-19T01:09:04.996Z,17.05
2023-05-19T01:11:54.682Z,16.99
2023-05-19T01:14:44.532Z,16.93
2023-05-19T01:17:43.595Z,16.77
2023-05-19T01:20:46.480Z,16.68
2023-05-19T01:23:47.873Z,16.69
2023-05-19T01:27:11.126Z,16.54
2023-05-19T01:30:30.193Z,16.61
2023-05-19T01:33:21.574Z,16.65
2023-05-19T01:36:13.622Z,16.62
2023-05-19T01:39:03.551Z,16.70
2023-05-19T01:41:53.637Z,16.71
2023-05-19T01:44:43.581Z,16.66
2023-05-19T01:47:34.978Z,16.55
2023-05-19T01:50:24.765Z,16.51
2023-05-19T01:53:14.535Z,16.42
2023-05-19T01:56:04.568Z,16.29
2023-05-19T01:59:01.626Z,16.29
2023-05-19T02:01:55.084Z,16.29
2023-05-19T02:04:52.620Z,16.25
2023-05-19T02:07:49.184Z,16.27
2023-05-19T02:10:43.644Z,16.22
2023-05-19T02:13:38.574Z,16.18
2023-05-19T02:16:30.468Z,16.07
2023-05-19T02:19:25.875Z,16.07
2023-05-19T02:22:18.891Z,16.04
2023-05-19T02:25:11.343Z,16.08
2023-05-19T02:28:01.680Z,16.04
2023-05-19T02:30:52.823Z,16.04
2023-05-19T02:33:43.104Z,16.01
2023-05-19T02:36:37.866Z,15.84
2023-05-19T02:39:29.512Z,15.75
2023-05-19T02:42:18.925Z,15.73
2023-05-19T02:45:09.666Z,15.73
2023-05-19T02:48:00.516Z,15.70
2023-05-19T02:50:49.820Z,15.63
2023-05-19T02:53:39.217Z,15.61
2023-05-19T02:56:30.075Z,15.57
2023-05-19T02:59:19.343Z,15.47
2023-05-19T03:02:08.821Z,15.44
2023-05-19T03:04:58.152Z,15.40
2023-05-19T03:07:47.754Z,15.43
2023-05-19T03:10:37.028Z,15.45
2023-05-19T03:13:27.738Z,15.38
2023-05-19T03:16:17.001Z,15.34
2023-05-19T03:19:06.306Z,15.33
2023-05-19T03:21:56.503Z,15.26
2023-05-19T03:24:46.039Z,15.23
2023-05-19T03:27:35.337Z,15.21
2023-05-19T03:30:26.237Z,15.20
2023-05-19T03:33:30.926Z,15.18
2023-05-19T03:36:22.174Z,15.13
2023-05-19T03:39:11.773Z,15.14
2023-05-19T03:42:01.213Z,15.11
2023-05-19T03:44:50.778Z,15.10
2023-05-19T03:47:42.260Z,15.06
2023-05-19T03:50:46.231Z,15.03
2023-05-19T03:53:45.728Z,15.01
2023-05-19T03:56:35.195Z,14.98
2023-05-19T03:59:24.844Z,14.97
2023-05-19T04:02:16.612Z,14.98
2023-05-19T04:05:08.687Z,14.95
2023-05-19T04:07:59.657Z,14.87
2023-05-19T04:10:49.093Z,14.81
2023-05-19T04:13:38.518Z,14.74
2023-05-19T04:16:28.005Z,14.70
2023-05-19T04:19:17.454Z,14.67
2023-05-19T04:22:08.582Z,14.62
2023-05-19T04:24:58.288Z,14.58
2023-05-19T04:27:48.368Z,14.49
2023-05-19T04:30:38.829Z,14.43
2023-05-19T04:33:29.389Z,14.39
2023-05-19T04:36:21.736Z,14.39
2023-05-19T04:39:15.764Z,14.35
2023-05-19T04:42:09.100Z,14.29
2023-05-19T04:44:59.000Z,14.25
2023-05-19T04:47:52.789Z,14.25
2023-05-19T04:50:42.521Z,14.14
2023-05-19T04:53:32.587Z,14.19
2023-05-19T04:56:23.755Z,14.18
2023-05-19T04:59:13.328Z,14.16
2023-05-19T05:02:02.988Z,14.17
2023-05-19T05:04:54.599Z,14.19
2023-05-19T05:07:45.232Z,14.19
2023-05-19T05:10:34.929Z,14.24
2023-05-19T05:13:27.487Z,14.19
2023-05-19T05:16:18.169Z,14.16
2023-05-19T05:19:15.508Z,14.23
2023-05-19T05:22:17.733Z,14.16
2023-05-19T05:25:09.508Z,13.95
2023-05-19T05:28:05.179Z,14.20
2023-05-19T05:30:58.057Z,14.20
2023-05-19T05:33:48.024Z,14.25
2023-05-19T05:36:41.859Z,14.28
2023-05-19T05:39:34.679Z,14.39
2023-05-19T05:42:29.616Z,14.40
2023-05-19T05:45:22.561Z,14.50
2023-05-19T05:48:29.850Z,14.51
2023-05-19T05:51:24.189Z,14.46
2023-05-19T05:54:18.677Z,14.42
2023-05-19T05:57:15.118Z,14.56
2023-05-19T06:00:08.944Z,14.58
2023-05-19T06:03:05.993Z,14.62
2023-05-19T06:05:57.256Z,14.58
2023-05-19T06:08:47.076Z,14.61
2023-05-19T06:11:36.884Z,14.66
2023-05-19T06:14:36.456Z,14.76
2023-05-19T06:17:58.028Z,14.77
2023-05-19T06:20:47.682Z,14.75
2023-05-19T06:23:38.520Z,14.79
2023-05-19T06:26:30.075Z,14.80
2023-05-19T06:29:19.806Z,14.83
2023-05-19T06:32:11.102Z,14.88
2023-05-19T06:35:01.205Z,14.95
2023-05-19T06:37:53.221Z,14.93
2023-05-19T06:40:47.762Z,14.97
2023-05-19T06:43:37.678Z,14.99
2023-05-19T06:46:29.051Z,14.98
2023-05-19T06:49:20.454Z,15.06
2023-05-19T06:52:14.155Z,15.03
2023-05-19T06:55:08.052Z,15.10
2023-05-19T06:58:01.320Z,15.15
2023-05-19T07:00:50.899Z,15.29
2023-05-19T07:03:40.687Z,15.25
2023-05-19T07:06:31.426Z,15.38
2023-05-19T07:09:21.072Z,15.41
2023-05-19T07:12:11.148Z,15.29
2023-05-19T07:15:02.200Z,15.42
2023-05-19T07:17:51.968Z,15.49
2023-05-19T07:20:41.362Z,15.56
2023-05-19T07:23:30.758Z,15.57
2023-05-19T07:26:20.420Z,15.62
2023-05-19T07:29:09.795Z,15.57
2023-05-19T07:32:00.614Z,15.63
2023-05-19T07:34:50.068Z,15.64
2023-05-19T07:37:39.427Z,15.61
2023-05-19T07:40:28.861Z,15.62
2023-05-19T07:43:18.258Z,15.64
2023-05-19T07:46:07.909Z,15.72
2023-05-19T07:48:58.937Z,15.77
2023-05-19T07:51:48.583Z,15.80
2023-05-19T07:54:39.785Z,15.76
2023-05-19T07:57:29.364Z,15.73
2023-05-19T08:00:19.929Z,15.83
2023-05-19T08:03:10.409Z,15.96
2023-05-19T08:06:01.417Z,16.05
2023-05-19T08:08:50.786Z,16.13
2023-05-19T08:11:40.177Z,16.22
2023-05-19T08:14:29.491Z,16.31
2023-05-19T08:17:18.760Z,16.35
2023-05-19T08:20:10.282Z,16.48
2023-05-19T08:23:01.183Z,16.45
2023-05-19T08:25:50.381Z,16.56
2023-05-19T08:28:39.848Z,16.59
2023-05-19T08:31:29.674Z,16.62
2023-05-19T08:34:19.023Z,16.57
2023-05-19T08:37:09.241Z,16.64
2023-05-19T08:39:59.960Z,16.63
2023-05-19T08:42:49.761Z,16.71
2023-05-19T08:45:40.628Z,16.81
2023-05-19T08:48:32.216Z,16.73
2023-05-19T08:51:33.417Z,16.79
2023-05-19T08:54:26.916Z,16.76
2023-05-19T08:57:18.417Z,16.70
2023-05-19T09:00:11.954Z,16.60
2023-05-19T09:05:55.864Z,16.66
2023-05-19T09:08:47.270Z,16.76
2023-05-19T09:11:37.980Z,16.82
2023-05-19T09:14:29.362Z,16.83
2023-05-19T09:17:19.150Z,16.95
2023-05-19T09:20:11.486Z,16.85
2023-05-19T09:23:01.841Z,16.80
2023-05-19T09:25:52.186Z,16.98
2023-05-19T09:28:42.473Z,17.01
2023-05-19T09:31:35.865Z,17.08
2023-05-19T09:34:26.920Z,17.16
2023-05-19T09:37:16.296Z,17.22
2023-05-19T09:40:10.553Z,17.24
2023-05-19T09:43:00.654Z,17.24
2023-05-19T09:45:50.100Z,17.36
2023-05-19T09:48:40.980Z,17.35
2023-05-19T09:51:32.111Z,17.53
2023-05-19T09:54:23.863Z,17.59
2023-05-19T09:57:13.757Z,17.64
2023-05-19T10:00:12.020Z,17.76
2023-05-19T10:03:02.984Z,17.72
2023-05-19T10:05:55.344Z,17.63
2023-05-19T10:08:45.755Z,17.82
2023-05-19T10:11:35.727Z,17.99
2023-05-19T10:14:26.803Z,18.05
2023-05-19T10:17:16.817Z,18.20
2023-05-19T10:20:11.018Z,18.04
2023-05-19T10:23:03.033Z,18.16
2023-05-19T10:25:54.558Z,18.31
2023-05-19T10:28:46.710Z,18.38
2023-05-19T10:31:37.295Z,18.52
2023-05-19T10:35:13.249Z,18.65
2023-05-19T10:38:23.401Z,18.60
2023-05-19T10:41:24.120Z,18.45
2023-05-19T10:44:36.575Z,18.62
2023-05-19T10:47:26.925Z,18.56
2023-05-19T10:50:17.518Z,18.54
2023-05-19T10:53:18.587Z,18.60
2023-05-19T10:56:10.297Z,18.64
2023-05-19T10:58:59.925Z,18.59
2023-05-19T11:01:49.301Z,18.68
2023-05-19T11:04:51.925Z,18.70
2023-05-19T11:07:44.651Z,18.78
2023-05-19T11:10:35.921Z,18.75
2023-05-19T11:13:29.957Z,18.84
2023-05-19T11:16:22.363Z,18.78
2023-05-19T11:19:20.248Z,18.82
2023-05-19T11:22:12.405Z,18.98
2023-05-19T11:25:01.690Z,19.26
2023-05-19T11:27:53.594Z,19.26
2023-05-19T11:30:44.703Z,19.24
2023-05-19T11:33:34.557Z,19.20
2023-05-19T11:36:24.476Z,19.03
2023-05-19T11:39:13.792Z,18.93
2023-05-19T11:42:03.275Z,18.87
2023-05-19T11:44:57.412Z,18.84
2023-05-19T11:48:01.112Z,18.77
2023-05-19T11:50:52.567Z,18.79
2023-05-19T11:53:42.300Z,18.83
2023-05-19T11:56:36.914Z,18.86
2023-05-19T11:59:34.211Z,18.77
2023-05-19T12:02:28.021Z,18.73
2023-05-19T12:05:23.052Z,18.85
2023-05-19T12:08:12.985Z,18.98
2023-05-19T12:11:02.429Z,19.13
2023-05-19T12:13:54.765Z,19.21
2023-05-19T12:16:44.275Z,19.31
2023-05-19T12:19:35.197Z,19.41
2023-05-19T12:22:24.654Z,19.61
2023-05-19T12:25:14.711Z,19.79
2023-05-19T12:28:04.667Z,20.04
2023-05-19T12:30:54.748Z,20.26
2023-05-19T12:33:44.356Z,20.52
2023-05-19T12:36:35.941Z,20.73
2023-05-19T12:39:26.389Z,20.81
2023-05-19T12:42:17.650Z,20.75
2023-05-19T12:45:08.562Z,20.92
2023-05-19T12:47:58.015Z,21.03
2023-05-19T12:50:49.755Z,21.06
2023-05-19T12:53:40.515Z,20.94
2023-05-19T12:56:30.147Z,20.87
2023-05-19T12:59:37.255Z,21.15
2023-05-19T13:02:27.658Z,21.36
2023-05-19T13:05:17.146Z,21.68
2023-05-19T13:08:09.079Z,21.89
2023-05-19T13:11:00.223Z,22.22
2023-05-19T13:13:49.685Z,22.24
2023-05-19T13:16:39.206Z,22.20
2023-05-19T13:19:28.713Z,21.92
2023-05-19T13:22:18.188Z,21.61
2023-05-19T13:25:09.065Z,21.67
2023-05-19T13:28:01.448Z,21.92
2023-05-19T13:30:51.520Z,22.34
2023-05-19T13:33:40.895Z,22.62
2023-05-19T13:36:30.224Z,22.90
2023-05-19T13:39:19.629Z,23.33
2023-05-19T13:42:09.252Z,23.83
2023-05-19T13:45:00.233Z,24.18
2023-05-19T13:47:49.520Z,24.44
2023-05-19T13:50:39.003Z,24.40
2023-05-19T13:53:29.717Z,24.11
2023-05-19T13:56:19.124Z,24.04
2023-05-19T13:59:08.663Z,24.13
2023-05-19T14:02:00.454Z,24.04
2023-05-19T14:04:49.855Z,23.87
2023-05-19T14:07:39.266Z,23.60
2023-05-19T14:10:28.664Z,23.39
2023-05-19T14:13:32.550Z,23.07
2023-05-19T14:16:23.897Z,22.98
2023-05-19T14:19:14.688Z,22.89
2023-05-19T14:22:04.153Z,22.64
2023-05-19T14:24:53.830Z,22.63
2023-05-19T14:27:43.168Z,22.82
2023-05-19T14:30:32.872Z,23.08
2023-05-19T14:33:22.732Z,23.18
2023-05-19T14:36:13.462Z,23.53
2023-05-19T14:39:03.236Z,23.91
2023-05-19T14:41:53.143Z,24.03
2023-05-19T14:44:42.429Z,23.89
2023-05-19T14:47:31.855Z,23.69
2023-05-19T14:50:21.495Z,23.46
2023-05-19T14:53:12.412Z,23.50
2023-05-19T14:56:01.689Z,23.59
2023-05-19T14:58:51.056Z,23.57
2023-05-19T15:01:40.506Z,23.39
2023-05-19T15:04:30.215Z,23.31
2023-05-19T15:07:20.212Z,22.83
2023-05-19T15:10:12.475Z,22.89
2023-05-19T15:13:01.849Z,22.76
2023-05-19T15:16:08.280Z,22.59
2023-05-19T15:19:05.394Z,22.38
2023-05-19T15:21:54.800Z,22.23
2023-05-19T15:24:44.520Z,22.16
2023-05-19T15:27:36.437Z,22.28
2023-05-19T15:30:26.162Z,22.18
2023-05-19T15:33:15.948Z,22.17
2023-05-19T15:36:05.978Z,22.29
2023-05-19T15:38:55.387Z,22.29
2023-05-19T15:41:44.830Z,22.30
2023-05-19T15:44:36.613Z,22.21
2023-05-19T15:47:26.110Z,22.29
2023-05-19T15:50:16.910Z,22.27
2023-05-19T15:53:07.847Z,22.33
2023-05-19T15:55:58.371Z,22.37
2023-05-19T15:58:47.650Z,22.32
2023-05-19T16:01:38.906Z,22.21
2023-05-19T16:04:28.651Z,22.20
2023-05-19T16:07:18.601Z,22.12
2023-05-19T16:10:09.428Z,22.02
2023-05-19T16:12:58.797Z,22.08
2023-05-19T16:15:48.226Z,22.08
2023-05-19T16:18:39.128Z,21.95
2023-05-19T16:21:28.588Z,21.95
2023-05-19T16:24:17.931Z,21.97
2023-05-19T16:27:07.442Z,22.02
2023-05-19T16:29:57.206Z,21.87
2023-05-19T16:32:46.730Z,21.87
2023-05-19T16:35:37.572Z,21.72
2023-05-19T16:38:26.835Z,21.63
2023-05-19T16:41:16.109Z,21.64
2023-05-19T16:44:05.474Z,21.57
2023-05-19T16:46:54.804Z,21.56
2023-05-19T16:49:44.228Z,21.52
2023-05-19T16:52:34.928Z,21.33
2023-05-19T16:55:25.475Z,21.53
2023-05-19T16:58:14.814Z,21.50
2023-05-19T17:01:04.692Z,21.41
2023-05-19T17:03:55.824Z,21.44
2023-05-19T17:06:46.250Z,21.49
2023-05-19T17:09:37.178Z,21.40
2023-05-19T17:12:26.588Z,21.20
2023-05-19T17:15:19.326Z,21.33
2023-05-19T17:18:08.633Z,21.38
2023-05-19T17:20:59.330Z,21.36
2023-05-19T17:23:49.534Z,21.40
2023-05-19T17:26:40.202Z,21.42
2023-05-19T17:29:29.521Z,21.48
2023-05-19T17:32:18.847Z,21.41
2023-05-19T17:35:09.653Z,21.32
2023-05-19T17:37:59.389Z,21.19
2023-05-19T17:40:48.828Z,20.87
2023-05-19T17:43:42.333Z,20.65
2023-05-19T17:46:34.752Z,20.46
2023-05-19T17:49:25.853Z,20.26
2023-05-19T17:52:16.655Z,20.04
2023-05-19T17:55:07.928Z,19.98
2023-05-19T17:57:58.097Z,19.83
2023-05-19T18:00:49.444Z,19.80
2023-05-19T18:03:39.915Z,19.74
2023-05-19T18:06:31.552Z,19.66
2023-05-19T18:09:26.011Z,19.71
2023-05-19T18:12:17.647Z,19.74
2023-05-19T18:15:08.372Z,19.67
2023-05-19T18:17:59.393Z,19.66
2023-05-19T18:20:48.700Z,19.68
2023-05-19T18:23:38.351Z,19.59
2023-05-19T18:26:27.803Z,19.69
2023-05-19T18:29:17.184Z,19.67
2023-05-19T18:32:07.761Z,19.66
2023-05-19T18:34:58.677Z,19.70
2023-05-19T18:37:48.048Z,19.41
2023-05-19T18:40:37.491Z,19.70
2023-05-19T18:43:26.791Z,19.64
2023-05-19T18:46:16.300Z,19.61
2023-05-19T18:49:06.816Z,19.54
2023-05-19T18:51:57.519Z,19.59
2023-05-19T18:54:47.725Z,19.59
2023-05-19T18:57:37.081Z,19.58
2023-05-19T19:00:28.137Z,19.57
2023-05-19T19:03:17.725Z,19.62
2023-05-19T19:06:07.145Z,19.62
2023-05-19T19:08:58.173Z,19.64
2023-05-19T19:11:47.510Z,19.57
2023-05-19T19:14:36.956Z,19.63
2023-05-19T19:17:26.702Z,19.70
2023-05-19T19:20:16.240Z,19.70
2023-05-19T19:23:06.837Z,19.74
2023-05-19T19:25:57.795Z,19.76
2023-05-19T19:28:47.525Z,19.76
2023-05-19T19:31:36.826Z,19.82
2023-05-19T19:34:26.283Z,19.83
2023-05-19T19:37:16.632Z,19.84
2023-05-19T19:40:07.531Z,19.79
2023-05-19T19:42:58.458Z,19.78
2023-05-19T19:45:47.891Z,19.69
2023-05-19T19:48:37.317Z,19.69
2023-05-19T19:51:26.795Z,19.66
2023-05-19T19:54:16.230Z,19.63
2023-05-19T19:57:06.354Z,19.58
2023-05-19T20:00:00.006Z,19.54
2023-05-19T20:03:03.737Z,19.44
2023-05-19T20:05:55.426Z,19.40
2023-05-19T20:08:45.040Z,19.39
2023-05-19T20:11:34.588Z,19.38
2023-05-19T20:14:24.111Z,19.31
2023-05-19T20:17:15.084Z,19.25
2023-05-19T20:20:10.225Z,19.15
2023-05-19T20:22:59.507Z,18.66
2023-05-19T20:26:02.958Z,19.09
2023-05-19T20:28:59.185Z,19.04
2023-05-19T20:31:48.475Z,19.01
2023-05-19T20:34:39.427Z,18.99
2023-05-19T20:37:28.790Z,19.06
2023-05-19T20:40:18.833Z,19.00
2023-05-19T20:43:08.245Z,18.91
2023-05-19T20:45:57.768Z,18.98
2023-05-19T20:48:47.266Z,18.93
2023-05-19T20:51:37.964Z,18.92
2023-05-19T20:54:27.364Z,18.94
2023-05-19T20:57:16.736Z,18.93
2023-05-19T21:00:07.518Z,18.96
2023-05-19T21:02:57.058Z,18.99
2023-05-19T21:05:46.694Z,18.97
2023-05-19T21:08:37.551Z,18.86
2023-05-19T21:11:27.008Z,18.89
2023-05-19T21:14:16.572Z,18.89
2023-05-19T21:17:07.258Z,18.87
2023-05-19T21:19:59.601Z,18.76
2023-05-19T21:22:48.986Z,18.87
2023-05-19T21:25:42.925Z,18.82
2023-05-19T21:28:33.438Z,18.84
2023-05-19T21:31:22.894Z,18.84
2023-05-19T21:34:12.434Z,18.85
2023-05-19T21:37:01.938Z,18.84
2023-05-19T21:39:51.721Z,18.92
2023-05-19T21:42:42.476Z,18.88
2023-05-19T21:45:31.845Z,18.87
2023-05-19T21:48:21.674Z,18.78
2023-05-19T21:51:11.253Z,18.69
2023-05-19T21:54:00.622Z,18.58
2023-05-19T21:56:49.950Z,18.50
2023-05-19T21:59:40.724Z,18.38
2023-05-19T22:02:30.088Z,18.33
2023-05-19T22:05:19.646Z,18.24
2023-05-19T22:08:09.463Z,18.20
2023-05-19T22:10:58.793Z,18.21
2023-05-19T22:13:48.056Z,18.20
2023-05-19T22:16:38.832Z,18.18
2023-05-19T22:19:28.277Z,18.03
2023-05-19T22:22:17.689Z,18.10
2023-05-19T22:25:08.500Z,18.11
2023-05-19T22:27:59.043Z,18.11
2023-05-19T22:30:48.689Z,18.13
2023-05-19T22:33:39.457Z,18.11
2023-05-19T22:36:28.741Z,18.01
2023-05-19T22:39:18.096Z,17.97
2023-05-19T22:42:07.724Z,17.77
2023-05-19T22:44:57.169Z,17.83
2023-05-19T22:47:50.639Z,17.78
2023-05-19T22:50:45.277Z,17.81
2023-05-19T22:53:39.825Z,17.76
2023-05-19T22:56:34.085Z,17.68
2023-05-19T22:59:44.619Z,17.67
2023-05-19T23:02:38.469Z,17.66
2023-05-19T23:05:32.476Z,17.60
2023-05-19T23:08:25.790Z,17.60
2023-05-19T23:11:15.346Z,17.58
2023-05-19T23:14:06.922Z,17.56
2023-05-19T23:16:58.873Z,17.55
2023-05-19T23:19:48.256Z,17.46
2023-05-19T23:22:40.773Z,17.44
2023-05-19T23:25:34.609Z,17.49
2023-05-19T23:28:28.613Z,17.48
2023-05-19T23:31:18.072Z,17.51
2023-05-19T23:34:11.193Z,17.43
2023-05-19T23:37:03.248Z,17.43
2023-05-19T23:39:55.704Z,17.45
2023-05-19T23:42:46.640Z,17.45
2023-05-19T23:45:38.052Z,17.40
2023-05-19T23:48:29.785Z,17.49
2023-05-19T23:51:19.439Z,17.45
2023-05-19T23:54:09.459Z,17.51
2023-05-19T23:56:59.445Z,17.54
2023-05-19T23:59:52.799Z,17.55
